Time;durP1;ratioP1;P1;durP2;ratioP2;P2;SDS_P1;SDS_P2;PMS_P1;PMS_P2;Temp;Humidity;BMP_temperature;BMP_pressure;BME280_temperature;BME280_humidity;BME280_pressure;Samples;Min_cycle;Max_cycle;Signal;HPM_P1;HPM_P2
2022/02/21 00:01:16;;;;;;;2.43;1.50;;;7.40;99.90;;;;;;5026795;28;20183;-43
2022/02/21 00:03:41;;;;;;;1.53;0.60;;;7.50;99.90;;;;;;5028861;28;20217;-43
2022/02/21 00:06:07;;;;;;;2.33;0.80;;;7.50;99.90;;;;;;5029290;28;20210;-43
2022/02/21 00:08:33;;;;;;;3.67;0.80;;;7.50;99.90;;;;;;5027830;28;20233;-43
2022/02/21 00:10:58;;;;;;;3.97;0.93;;;7.40;99.90;;;;;;5029448;28;20255;-43
2022/02/21 00:13:24;;;;;;;1.17;1.00;;;7.50;99.90;;;;;;5014979;28;20202;-43
2022/02/21 00:15:50;;;;;;;2.17;0.87;;;7.20;99.90;;;;;;5028811;28;20683;-43
2022/02/21 00:18:15;;;;;;;3.13;1.00;;;7.20;99.90;;;;;;5010750;28;20191;-43
2022/02/21 00:20:41;;;;;;;4.37;1.43;;;7.20;99.90;;;;;;5019632;28;20681;-44
2022/02/21 00:23:08;;;;;;;2.60;1.40;;;7.30;99.90;;;;;;5029241;28;20186;-44
2022/02/21 00:25:33;;;;;;;1.70;1.07;;;7.30;99.90;;;;;;5027531;28;20668;-43
2022/02/21 00:27:59;;;;;;;5.03;1.47;;;7.30;99.90;;;;;;5019505;28;20524;-43
2022/02/21 00:30:25;;;;;;;1.67;1.57;;;7.30;99.90;;;;;;5028037;28;20277;-43
2022/02/21 00:32:51;;;;;;;3.67;1.93;;;7.40;99.90;;;;;;5029237;28;20823;-43
2022/02/21 00:35:17;;;;;;;11.07;2.47;;;7.20;99.90;;;;;;5029101;28;20186;-43
2022/02/21 00:37:42;;;;;;;2.57;2.17;;;7.30;99.90;;;;;;5028934;28;20445;-46
2022/02/21 00:40:09;;;;;;;4.63;2.20;;;7.00;99.90;;;;;;5028149;28;20453;-43
2022/02/21 00:42:34;;;;;;;5.23;2.33;;;7.10;99.90;;;;;;5022823;28;20586;-43
2022/02/21 00:45:00;;;;;;;5.50;2.57;;;7.20;99.90;;;;;;5022687;28;20425;-43
2022/02/21 00:47:28;;;;;;;6.80;2.50;;;7.30;99.90;;;;;;5028860;28;20182;-43
2022/02/21 00:49:54;;;;;;;3.57;1.87;;;7.40;99.90;;;;;;5027085;28;20190;-46
2022/02/21 00:52:21;;;;;;;4.00;1.67;;;7.30;99.90;;;;;;5028943;28;20797;-43
2022/02/21 00:54:47;;;;;;;3.70;1.80;;;7.10;99.90;;;;;;5028599;28;20425;-43
2022/02/21 00:57:13;;;;;;;5.33;2.20;;;7.20;99.90;;;;;;5023049;28;20450;-43
2022/02/21 00:59:39;;;;;;;4.60;1.93;;;7.10;99.90;;;;;;5021779;28;20457;-43
2022/02/21 01:02:05;;;;;;;6.80;2.57;;;7.10;99.90;;;;;;5026980;28;20336;-44
2022/02/21 01:04:30;;;;;;;5.80;2.23;;;7.10;99.90;;;;;;5028760;28;20220;-44
2022/02/21 01:06:56;;;;;;;5.00;1.73;;;7.20;99.90;;;;;;5028228;28;20787;-43
2022/02/21 01:09:22;;;;;;;4.90;2.27;;;7.20;99.90;;;;;;5028725;28;20285;-44
2022/02/21 01:11:48;;;;;;;5.10;1.77;;;7.20;99.90;;;;;;5026429;28;20350;-43
2022/02/21 01:14:14;;;;;;;4.30;1.67;;;7.20;99.90;;;;;;5022183;28;20418;-43
2022/02/21 01:16:40;;;;;;;2.90;2.60;;;7.10;99.90;;;;;;5027964;28;20304;-43
2022/02/21 01:19:06;;;;;;;3.20;1.53;;;7.30;99.90;;;;;;5028234;28;20524;-42
2022/02/21 01:21:32;;;;;;;9.80;2.27;;;7.20;99.90;;;;;;5030265;28;20431;-43
2022/02/21 01:23:59;;;;;;;2.90;1.40;;;7.20;99.90;;;;;;5048186;28;20272;-43
2022/02/21 01:26:25;;;;;;;5.23;1.70;;;7.20;99.90;;;;;;5047705;28;20922;-43
2022/02/21 01:28:51;;;;;;;4.30;1.27;;;7.10;99.90;;;;;;5021041;28;20848;-46
2022/02/21 01:31:17;;;;;;;5.87;2.67;;;7.20;99.90;;;;;;5027023;28;20455;-43
2022/02/21 01:33:43;;;;;;;3.20;1.40;;;7.20;99.90;;;;;;5027963;28;20438;-44
2022/02/21 01:36:08;;;;;;;5.67;1.40;;;7.10;99.90;;;;;;5027433;28;20475;-44
2022/02/21 01:38:34;;;;;;;4.17;1.50;;;7.00;99.90;;;;;;5027600;28;20417;-43
2022/02/21 01:41:00;;;;;;;9.10;1.70;;;7.10;99.90;;;;;;5027445;28;20210;-43
2022/02/21 01:43:26;;;;;;;5.80;1.37;;;7.10;99.90;;;;;;5019307;28;20266;-43
2022/02/21 01:45:52;;;;;;;10.33;1.77;;;7.00;99.90;;;;;;5028026;28;20520;-44
2022/02/21 01:48:17;;;;;;;13.63;1.80;;;7.10;99.90;;;;;;5027842;28;20190;-43
2022/02/21 01:50:43;;;;;;;6.33;0.90;;;6.90;99.90;;;;;;5027236;28;20252;-44
2022/02/21 01:53:10;;;;;;;5.30;1.70;;;7.20;99.90;;;;;;5027574;28;20182;-43
2022/02/21 01:55:37;;;;;;;13.03;2.60;;;7.00;99.90;;;;;;5027452;28;20479;-44
2022/02/21 01:58:05;;;;;;;5.90;1.50;;;7.10;99.90;;;;;;5005467;28;20457;-44
2022/02/21 02:00:30;;;;;;;6.10;1.83;;;7.20;99.90;;;;;;5025168;28;20471;-43
2022/02/21 02:02:56;;;;;;;5.77;1.93;;;7.00;99.90;;;;;;5027746;28;20504;-43
2022/02/21 02:05:25;;;;;;;5.03;1.90;;;7.00;99.90;;;;;;5027642;28;20190;-46
2022/02/21 02:07:52;;;;;;;3.90;1.53;;;6.90;99.90;;;;;;5028087;28;20194;-44
2022/02/21 02:10:19;;;;;;;2.90;1.07;;;6.80;99.90;;;;;;5041713;28;20445;-43
2022/02/21 02:12:44;;;;;;;5.67;2.60;;;6.90;99.90;;;;;;5022774;28;20441;-43
2022/02/21 02:15:12;;;;;;;7.73;1.90;;;6.90;99.90;;;;;;5024644;28;20417;-44
2022/02/21 02:17:37;;;;;;;3.77;1.30;;;7.00;99.90;;;;;;5027355;28;20186;-43
2022/02/21 02:20:04;;;;;;;4.93;1.47;;;6.90;99.90;;;;;;5026691;28;20452;-43
2022/02/21 02:22:29;;;;;;;6.50;1.80;;;7.00;99.90;;;;;;5039406;28;20189;-45
2022/02/21 02:24:55;;;;;;;6.37;1.30;;;6.60;99.90;;;;;;5046792;28;20431;-43
2022/02/21 02:27:22;;;;;;;6.40;1.73;;;6.80;99.90;;;;;;5045617;28;20672;-43
2022/02/21 02:29:52;;;;;;;3.67;1.57;;;6.80;99.90;;;;;;5012921;28;20189;-45
2022/02/21 02:32:20;;;;;;;6.30;1.53;;;6.80;99.90;;;;;;5027215;28;20469;-43
2022/02/21 02:34:46;;;;;;;7.57;2.87;;;6.70;99.90;;;;;;5027437;28;20426;-43
2022/02/21 02:37:12;;;;;;;9.50;2.03;;;6.70;99.90;;;;;;5027257;28;20528;-43
2022/02/21 02:39:39;;;;;;;11.00;1.60;;;6.70;99.90;;;;;;5026838;28;20480;-43
2022/02/21 02:42:05;;;;;;;6.70;2.63;;;6.80;99.90;;;;;;5027235;28;20406;-43
2022/02/21 02:44:31;;;;;;;8.20;2.20;;;6.80;99.90;;;;;;5017918;28;20528;-43
2022/02/21 02:46:57;;;;;;;7.53;1.93;;;6.50;99.90;;;;;;5026784;28;20409;-43
2022/02/21 02:49:24;;;;;;;11.20;2.90;;;6.50;99.90;;;;;;5017400;28;20420;-43
2022/02/21 02:51:49;;;;;;;5.33;1.60;;;6.50;99.90;;;;;;5030632;28;20494;-43
2022/02/21 02:54:15;;;;;;;5.50;2.23;;;6.40;99.90;;;;;;5030808;28;21016;-43
2022/02/21 02:56:42;;;;;;;7.03;2.53;;;6.60;99.90;;;;;;5030645;28;20189;-46
2022/02/21 02:59:09;;;;;;;6.37;1.67;;;6.40;99.90;;;;;;5019295;28;20948;-42
2022/02/21 03:01:35;;;;;;;9.13;2.00;;;6.30;99.90;;;;;;5028643;28;20420;-43
2022/02/21 03:04:04;;;;;;;6.20;1.80;;;6.50;99.90;;;;;;5030794;28;20421;-42
2022/02/21 03:06:30;;;;;;;6.60;1.70;;;6.50;99.90;;;;;;5030529;28;20502;-42
2022/02/21 03:08:56;;;;;;;5.20;2.07;;;6.30;99.90;;;;;;5030556;28;20570;-43
2022/02/21 03:11:21;;;;;;;4.20;1.93;;;6.30;99.90;;;;;;5030288;28;21071;-43
2022/02/21 03:13:47;;;;;;;13.80;3.00;;;6.60;99.90;;;;;;5022829;28;20595;-42
2022/02/21 03:16:13;;;;;;;6.97;2.30;;;6.60;99.90;;;;;;5026600;28;20186;-43
2022/02/21 03:18:38;;;;;;;7.07;1.70;;;6.30;99.90;;;;;;5030461;28;20198;-45
2022/02/21 03:21:04;;;;;;;8.33;2.60;;;6.40;99.90;;;;;;5030746;28;20898;-43
2022/02/21 03:23:30;;;;;;;10.27;2.37;;;6.50;99.90;;;;;;5038189;28;20194;-44
2022/02/21 03:25:56;;;;;;;6.77;2.00;;;6.50;99.90;;;;;;5050521;28;20997;-43
2022/02/21 03:28:22;;;;;;;7.17;2.43;;;6.30;99.90;;;;;;5038688;28;20187;-43
2022/02/21 03:30:48;;;;;;;6.00;2.80;;;6.50;99.90;;;;;;5025800;28;20896;-43
2022/02/21 03:33:13;;;;;;;8.40;2.53;;;6.50;99.90;;;;;;5030357;28;20202;-43
2022/02/21 03:35:39;;;;;;;8.57;1.83;;;6.40;99.90;;;;;;5045592;28;20817;-43
2022/02/21 03:38:05;;;;;;;8.40;2.30;;;6.40;99.90;;;;;;5030338;28;20635;-43
2022/02/21 03:40:31;;;;;;;4.13;2.17;;;6.60;99.90;;;;;;5029343;28;20468;-41
2022/02/21 03:42:58;;;;;;;9.60;2.00;;;6.30;99.90;;;;;;5028718;28;20183;-41
2022/02/21 03:45:24;;;;;;;7.67;2.93;;;6.30;99.90;;;;;;5019549;28;20748;-41
2022/02/21 03:47:50;;;;;;;6.80;2.23;;;6.20;99.90;;;;;;5030319;28;20508;-44
2022/02/21 03:50:16;;;;;;;7.30;2.83;;;6.10;99.90;;;;;;5028977;28;20425;-42
2022/02/21 03:52:42;;;;;;;7.70;3.20;;;6.10;99.90;;;;;;5029987;28;20425;-43
2022/02/21 03:55:09;;;;;;;8.37;3.00;;;5.80;99.90;;;;;;5030032;28;20685;-42
2022/02/21 03:57:34;;;;;;;5.90;2.10;;;6.10;99.90;;;;;;5029989;28;20444;-43
2022/02/21 04:00:00;;;;;;;6.20;1.70;;;5.70;99.90;;;;;;5016924;28;20457;-46
2022/02/21 04:02:25;;;;;;;4.83;1.37;;;5.90;99.90;;;;;;5029830;28;20330;-43
2022/02/21 04:04:51;;;;;;;3.83;2.10;;;5.90;99.90;;;;;;5029464;28;20205;-43
2022/02/21 04:07:17;;;;;;;6.40;1.50;;;6.00;99.90;;;;;;5030090;28;20217;-43
2022/02/21 04:09:43;;;;;;;6.33;1.83;;;5.70;99.90;;;;;;5027784;28;20210;-44
2022/02/21 04:12:09;;;;;;;10.00;3.37;;;5.80;99.90;;;;;;5029464;28;20472;-45
2022/02/21 04:14:35;;;;;;;6.23;2.07;;;5.60;99.90;;;;;;5018477;28;20215;-43
2022/02/21 04:17:01;;;;;;;3.70;1.60;;;5.70;99.90;;;;;;5029125;28;20947;-44
2022/02/21 04:19:27;;;;;;;6.70;1.77;;;5.70;99.90;;;;;;5029097;28;20213;-47
2022/02/21 04:21:52;;;;;;;6.50;2.13;;;5.80;99.90;;;;;;5032528;28;20433;-44
2022/02/21 04:24:18;;;;;;;5.70;2.37;;;6.00;99.90;;;;;;5043214;28;20960;-45
2022/02/21 04:26:44;;;;;;;7.30;2.20;;;5.70;99.90;;;;;;5049403;28;20189;-41
2022/02/21 04:29:10;;;;;;;6.90;1.70;;;5.90;99.90;;;;;;5030375;28;21003;-43
2022/02/21 04:31:35;;;;;;;10.33;2.27;;;5.90;99.90;;;;;;5028505;28;20183;-42
2022/02/21 04:34:01;;;;;;;5.60;1.87;;;5.80;99.90;;;;;;5029310;28;20213;-39
2022/02/21 04:36:28;;;;;;;4.90;1.90;;;5.80;99.90;;;;;;5029313;28;20198;-43
2022/02/21 04:38:54;;;;;;;6.13;1.90;;;5.60;99.90;;;;;;5028959;28;20190;-44
2022/02/21 04:41:20;;;;;;;7.60;1.87;;;5.50;99.90;;;;;;5028490;28;20465;-43
2022/02/21 04:43:46;;;;;;;9.63;2.00;;;5.50;99.90;;;;;;5024070;28;20253;-43
2022/02/21 04:46:11;;;;;;;3.47;1.57;;;5.70;99.90;;;;;;5024786;28;20194;-43
2022/02/21 04:48:37;;;;;;;6.07;1.80;;;5.30;99.90;;;;;;5028395;28;20182;-42
2022/02/21 04:51:03;;;;;;;3.13;1.43;;;5.30;99.90;;;;;;5028563;28;20614;-41
2022/02/21 04:53:28;;;;;;;10.33;2.40;;;5.20;99.90;;;;;;5028858;28;20277;-43
2022/02/21 04:55:54;;;;;;;7.37;2.10;;;5.10;99.90;;;;;;5028855;28;20685;-43
2022/02/21 04:58:20;;;;;;;5.00;1.77;;;5.10;99.90;;;;;;5027498;28;20267;-42
2022/02/21 05:00:46;;;;;;;2.80;1.37;;;5.30;99.90;;;;;;5015308;28;20221;-46
2022/02/21 05:03:11;;;;;;;4.20;1.30;;;5.00;99.90;;;;;;5028365;28;20182;-41
2022/02/21 05:05:37;;;;;;;9.37;1.20;;;5.20;99.90;;;;;;5022583;28;20236;-41
2022/02/21 05:08:03;;;;;;;6.83;1.70;;;5.10;99.90;;;;;;5028587;28;20187;-42
2022/02/21 05:10:29;;;;;;;5.37;1.60;;;5.10;99.90;;;;;;5027630;28;20194;-45
2022/02/21 05:12:55;;;;;;;8.37;1.90;;;5.00;99.90;;;;;;5028915;28;20216;-43
2022/02/21 05:15:20;;;;;;;2.77;1.30;;;4.90;99.90;;;;;;5019301;28;20437;-41
2022/02/21 05:17:46;;;;;;;6.43;2.13;;;4.70;99.90;;;;;;5028127;28;20436;-41
2022/02/21 05:20:12;;;;;;;13.37;2.20;;;4.70;99.90;;;;;;5033550;28;20194;-41
2022/02/21 05:22:38;;;;;;;6.80;1.70;;;4.70;99.90;;;;;;5040673;28;20649;-41
2022/02/21 05:25:05;;;;;;;7.00;1.90;;;4.90;99.90;;;;;;5046011;28;20424;-40
2022/02/21 05:27:35;;;;;;;4.33;2.00;;;4.90;99.90;;;;;;5048253;28;20439;-42
2022/02/21 05:30:03;;;;;;;6.27;1.73;;;4.80;99.90;;;;;;5020894;28;20493;-42
2022/02/21 05:32:29;;;;;;;9.47;2.77;;;4.60;99.90;;;;;;5025791;28;20429;-46
2022/02/21 05:34:55;;;;;;;8.40;2.43;;;4.60;99.90;;;;;;5028176;28;20425;-41
2022/02/21 05:37:21;;;;;;;8.83;2.40;;;4.50;99.90;;;;;;5027715;28;20597;-44
2022/02/21 05:39:47;;;;;;;3.90;2.30;;;4.50;99.90;;;;;;5027566;28;20476;-44
2022/02/21 05:42:14;;;;;;;5.60;3.00;;;4.50;99.90;;;;;;5027711;28;20182;-42
2022/02/21 05:44:40;;;;;;;7.83;2.00;;;4.70;99.90;;;;;;5020130;28;20432;-43
2022/02/21 05:47:06;;;;;;;4.10;1.73;;;4.40;99.90;;;;;;5022411;28;20429;-46
2022/02/21 05:49:32;;;;;;;7.73;2.67;;;4.50;99.90;;;;;;5027772;28;20312;-43
2022/02/21 05:51:59;;;;;;;11.30;2.30;;;4.60;99.90;;;;;;5027649;28;21008;-43
2022/02/21 05:54:24;;;;;;;12.17;2.83;;;4.60;99.90;;;;;;5038518;28;20966;-44
2022/02/21 05:56:50;;;;;;;7.40;1.93;;;4.60;99.90;;;;;;5025934;28;20425;-43
2022/02/21 05:59:16;;;;;;;7.20;2.40;;;4.70;99.90;;;;;;5022305;28;20190;-42
2022/02/21 06:01:42;;;;;;;14.43;2.20;;;4.50;99.90;;;;;;5021632;28;20433;-44
2022/02/21 06:04:08;;;;;;;9.50;2.97;;;4.60;99.90;;;;;;5027406;28;20471;-46
2022/02/21 06:06:34;;;;;;;7.43;2.30;;;4.70;99.90;;;;;;5027734;28;20195;-44
2022/02/21 06:09:01;;;;;;;8.83;2.17;;;4.50;99.90;;;;;;5027334;28;20468;-44
2022/02/21 06:11:27;;;;;;;4.40;2.30;;;4.30;99.90;;;;;;5027153;28;20425;-43
2022/02/21 06:13:54;;;;;;;4.00;2.17;;;4.10;99.90;;;;;;5025018;28;20710;-43
2022/02/21 06:16:20;;;;;;;6.10;1.90;;;4.30;99.90;;;;;;5021500;28;20521;-43
2022/02/21 06:18:46;;;;;;;6.40;2.37;;;4.30;99.90;;;;;;5027273;28;20433;-44
2022/02/21 06:21:11;;;;;;;5.90;2.70;;;4.00;99.90;;;;;;5040951;28;20450;-43
2022/02/21 06:23:37;;;;;;;4.13;2.30;;;4.20;99.90;;;;;;5040631;28;20196;-44
2022/02/21 06:26:04;;;;;;;7.30;1.87;;;4.00;99.90;;;;;;5047237;28;20190;-43
2022/02/21 06:28:29;;;;;;;8.20;2.33;;;4.40;99.90;;;;;;5047555;28;20240;-44
2022/02/21 06:30:55;;;;;;;5.03;2.20;;;4.30;99.90;;;;;;5021965;28;20974;-43
2022/02/21 06:33:21;;;;;;;8.60;2.00;;;4.40;99.90;;;;;;5027224;28;20190;-44
2022/02/21 06:35:47;;;;;;;7.23;2.40;;;4.20;99.90;;;;;;5026905;28;20590;-44
2022/02/21 06:38:13;;;;;;;5.67;2.17;;;4.50;99.90;;;;;;5027529;28;20304;-43
2022/02/21 06:40:38;;;;;;;2.73;2.00;;;4.50;99.90;;;;;;5026147;28;20556;-44
2022/02/21 06:43:04;;;;;;;7.83;2.63;;;4.40;99.90;;;;;;5027440;28;20190;-43
2022/02/21 06:45:30;;;;;;;3.33;2.10;;;4.30;99.90;;;;;;5016299;28;20258;-45
2022/02/21 06:47:57;;;;;;;6.20;2.23;;;4.30;99.90;;;;;;5026941;28;20433;-44
2022/02/21 06:50:24;;;;;;;3.50;2.53;;;4.30;99.90;;;;;;5025731;28;20212;-43
2022/02/21 06:52:50;;;;;;;7.10;1.90;;;4.20;99.90;;;;;;5027352;28;20436;-44
2022/02/21 06:55:16;;;;;;;6.33;1.80;;;4.50;99.90;;;;;;5020976;28;20437;-44
2022/02/21 06:57:43;;;;;;;7.73;2.00;;;4.30;99.90;;;;;;5028416;28;20456;-45
2022/02/21 07:00:10;;;;;;;4.10;1.80;;;4.40;99.90;;;;;;5017729;28;20234;-43
2022/02/21 07:02:36;;;;;;;2.93;1.57;;;4.40;99.90;;;;;;5024316;28;20888;-43
2022/02/21 07:05:02;;;;;;;5.60;1.50;;;4.30;99.90;;;;;;5025215;28;20512;-44
2022/02/21 07:07:28;;;;;;;5.60;1.93;;;4.60;99.90;;;;;;5026028;28;20598;-43
2022/02/21 07:09:54;;;;;;;5.00;1.50;;;4.70;99.90;;;;;;5025154;28;20429;-44
2022/02/21 07:12:19;;;;;;;8.60;2.53;;;4.50;99.90;;;;;;5025599;28;20202;-43
2022/02/21 07:14:47;;;;;;;7.77;1.90;;;4.40;99.90;;;;;;5023088;28;20199;-45
2022/02/21 07:17:13;;;;;;;3.80;2.10;;;4.20;99.90;;;;;;5022197;28;20203;-44
2022/02/21 07:19:38;;;;;;;6.93;1.77;;;4.50;99.90;;;;;;5026753;28;20464;-43
2022/02/21 07:22:06;;;;;;;3.63;1.70;;;4.30;99.90;;;;;;5026178;28;20425;-44
2022/02/21 07:24:31;;;;;;;6.33;1.80;;;4.30;99.90;;;;;;5023152;28;20206;-43
2022/02/21 07:27:00;;;;;;;5.03;1.60;;;4.20;99.90;;;;;;5035531;28;20565;-43
2022/02/21 07:29:26;;;;;;;12.30;2.00;;;4.50;99.90;;;;;;5043607;28;20197;-44
2022/02/21 07:31:52;;;;;;;3.77;1.67;;;4.50;99.90;;;;;;5020969;28;20420;-43
2022/02/21 07:34:18;;;;;;;7.20;1.90;;;4.20;99.90;;;;;;5026508;28;20425;-45
2022/02/21 07:36:44;;;;;;;3.30;1.60;;;4.30;99.90;;;;;;5030256;28;20436;-43
2022/02/21 07:39:10;;;;;;;4.37;1.70;;;4.20;99.90;;;;;;5029822;28;20202;-43
2022/02/21 07:41:36;;;;;;;7.57;2.00;;;4.60;99.90;;;;;;5020191;28;20527;-43
2022/02/21 07:44:01;;;;;;;11.23;2.50;;;4.50;99.90;;;;;;5025001;28;20826;-43
2022/02/21 07:46:27;;;;;;;7.63;1.57;;;4.50;99.90;;;;;;5016600;28;20441;-44
2022/02/21 07:48:53;;;;;;;4.93;2.30;;;4.80;99.90;;;;;;5029453;28;20198;-44
2022/02/21 07:51:18;;;;;;;6.27;2.30;;;4.70;99.90;;;;;;5029480;28;20205;-43
2022/02/21 07:53:44;;;;;;;6.97;2.80;;;4.80;99.90;;;;;;5029554;28;20190;-46
2022/02/21 07:56:10;;;;;;;9.03;1.70;;;4.80;99.90;;;;;;5029483;28;20195;-44
2022/02/21 07:58:36;;;;;;;5.73;2.63;;;4.60;99.90;;;;;;5029944;28;20214;-43
2022/02/21 08:01:02;;;;;;;12.97;3.00;;;4.70;99.90;;;;;;5018243;28;20516;-44
2022/02/21 08:03:27;;;;;;;21.27;3.27;;;4.80;99.90;;;;;;5026177;28;20428;-44
2022/02/21 08:05:57;;;;;;;5.77;1.97;;;4.90;99.90;;;;;;5038247;28;20571;-44
2022/02/21 08:08:22;;;;;;;12.40;3.00;;;4.80;99.90;;;;;;5047841;28;20201;-47
2022/02/21 08:10:48;;;;;;;5.57;2.60;;;5.20;99.90;;;;;;5048335;28;20416;-42
2022/02/21 08:13:14;;;;;;;5.87;2.00;;;5.20;99.90;;;;;;5049719;28;20193;-42
2022/02/21 08:15:40;;;;;;;5.90;2.00;;;5.50;99.90;;;;;;5033454;28;20266;-43
2022/02/21 08:18:06;;;;;;;6.53;1.80;;;5.40;99.90;;;;;;5025043;28;20244;-45
2022/02/21 08:20:31;;;;;;;5.47;2.33;;;5.30;99.90;;;;;;5028723;28;20850;-44
2022/02/21 08:22:57;;;;;;;19.93;2.43;;;5.40;99.90;;;;;;5037061;28;20262;-43
2022/02/21 08:25:23;;;;;;;9.90;2.07;;;5.50;99.90;;;;;;5027499;28;20179;-44
2022/02/21 08:27:51;;;;;;;7.67;2.20;;;5.40;99.90;;;;;;5029066;28;20857;-44
2022/02/21 08:30:19;;;;;;;9.13;2.37;;;5.50;99.90;;;;;;5023597;28;20195;-42
2022/02/21 08:32:46;;;;;;;7.13;2.17;;;5.60;99.90;;;;;;5021378;28;20424;-39
2022/02/21 08:35:12;;;;;;;8.53;2.77;;;5.30;99.90;;;;;;5029154;28;20429;-43
2022/02/21 08:37:39;;;;;;;6.10;1.93;;;5.40;99.90;;;;;;5029318;28;20461;-45
2022/02/21 08:40:07;;;;;;;4.83;1.63;;;5.50;99.90;;;;;;5027913;28;21059;-43
2022/02/21 08:42:33;;;;;;;7.20;1.93;;;5.50;99.90;;;;;;5032615;28;20432;-40
2022/02/21 08:44:59;;;;;;;4.93;2.20;;;5.50;99.90;;;;;;5045480;28;20420;-42
2022/02/21 08:47:25;;;;;;;5.60;1.90;;;5.70;99.90;;;;;;5019852;28;20426;-43
2022/02/21 08:49:51;;;;;;;9.30;1.97;;;5.80;99.90;;;;;;5027156;28;20568;-43
2022/02/21 08:52:17;;;;;;;7.27;1.90;;;5.70;99.90;;;;;;5028780;28;21003;-43
2022/02/21 08:54:43;;;;;;;8.90;2.40;;;6.10;99.90;;;;;;5028643;28;20443;-43
2022/02/21 08:57:10;;;;;;;6.03;2.60;;;6.00;99.90;;;;;;5028849;28;20792;-41
2022/02/21 08:59:36;;;;;;;10.03;2.37;;;6.00;99.90;;;;;;5028298;28;20475;-43
2022/02/21 09:02:01;;;;;;;6.30;1.90;;;6.10;99.90;;;;;;5017324;28;20923;-43
2022/02/21 09:04:27;;;;;;;5.90;2.17;;;6.20;99.90;;;;;;5028314;28;20453;-44
2022/02/21 09:06:53;;;;;;;4.70;1.73;;;6.60;99.90;;;;;;5028843;28;20433;-44
2022/02/21 09:09:18;;;;;;;5.90;1.70;;;6.50;99.90;;;;;;5028139;28;20186;-44
2022/02/21 09:11:45;;;;;;;5.70;2.27;;;6.90;99.90;;;;;;5027811;28;20187;-43
2022/02/21 09:14:11;;;;;;;6.40;2.10;;;6.70;99.90;;;;;;5028279;28;20663;-44
2022/02/21 09:16:37;;;;;;;4.60;1.40;;;6.70;99.90;;;;;;5018400;28;20433;-44
2022/02/21 09:19:03;;;;;;;4.80;2.17;;;6.80;99.90;;;;;;5026895;28;20931;-43
2022/02/21 09:21:29;;;;;;;5.63;1.57;;;6.90;99.90;;;;;;5031830;28;20210;-42
2022/02/21 09:23:54;;;;;;;5.70;1.73;;;6.90;99.90;;;;;;5043690;28;20435;-45
2022/02/21 09:26:20;;;;;;;7.50;2.07;;;7.10;99.90;;;;;;5045375;28;20268;-44
2022/02/21 09:28:47;;;;;;;4.13;1.63;;;7.00;99.90;;;;;;5048454;28;20553;-44
2022/02/21 09:31:13;;;;;;;4.40;1.30;;;7.70;99.90;;;;;;5033737;28;20860;-41
2022/02/21 09:33:38;;;;;;;7.20;2.10;;;7.30;99.90;;;;;;5028085;28;20429;-44
2022/02/21 09:36:04;;;;;;;3.93;1.67;;;6.90;99.90;;;;;;5027715;28;20202;-43
2022/02/21 09:38:31;;;;;;;3.13;1.73;;;6.90;99.90;;;;;;5027770;28;20433;-43
2022/02/21 09:40:56;;;;;;;9.27;2.30;;;6.70;99.90;;;;;;5027365;28;20464;-43
2022/02/21 09:43:26;;;;;;;9.10;2.23;;;6.80;99.90;;;;;;5028084;28;21049;-43
2022/02/21 09:46:04;;;;;;;9.23;1.90;;;6.90;99.90;;;;;;5021994;28;20195;-43
2022/02/21 09:48:31;;;;;;;5.00;1.67;;;7.00;99.90;;;;;;5021483;28;20452;-41
2022/02/21 09:51:00;;;;;;;5.10;1.40;;;6.80;99.90;;;;;;5026619;28;20426;-45
2022/02/21 09:53:31;;;;;;;3.90;1.30;;;6.80;99.90;;;;;;5043177;28;20536;-45
2022/02/21 09:55:57;;;;;;;8.93;1.63;;;6.90;99.90;;;;;;5027627;28;20431;-43
2022/02/21 09:58:24;;;;;;;6.73;1.93;;;7.00;99.90;;;;;;5026855;28;20432;-43
2022/02/21 10:00:50;;;;;;;7.60;1.50;;;7.00;99.90;;;;;;5023250;28;20469;-43
2022/02/21 10:03:40;;;;;;;6.00;2.00;;;6.90;99.90;;;;;;5022729;28;20599;-43
2022/02/21 10:06:12;;;;;;;5.27;2.23;;;6.80;99.90;;;;;;5022045;28;20460;-44
2022/02/21 10:08:55;;;;;;;5.90;2.30;;;6.90;99.90;;;;;;5027692;28;20425;-40
2022/02/21 10:11:30;;;;;;;6.70;2.00;;;6.50;99.90;;;;;;5026635;28;20425;-43
2022/02/21 10:13:58;;;;;;;3.70;1.93;;;6.50;99.90;;;;;;5027915;28;20417;-44
2022/02/21 10:16:24;;;;;;;6.07;1.80;;;6.80;99.90;;;;;;5021515;28;20444;-43
2022/02/21 10:19:11;;;;;;;7.23;1.77;;;6.80;99.90;;;;;;5021745;28;20784;-43
2022/02/21 10:21:49;;;;;;;5.60;2.30;;;6.80;99.90;;;;;;5034082;28;20427;-43
2022/02/21 10:24:15;;;;;;;6.10;1.43;;;6.70;99.90;;;;;;5043939;28;20467;-43
2022/02/21 10:26:42;;;;;;;7.83;2.37;;;6.50;99.90;;;;;;5046952;28;20460;-43
2022/02/21 10:29:08;;;;;;;4.17;1.53;;;6.40;99.90;;;;;;5047366;28;20438;-43
2022/02/21 10:31:34;;;;;;;8.80;2.07;;;6.50;99.90;;;;;;5033361;28;20441;-44
2022/02/21 10:34:08;;;;;;;10.00;2.10;;;6.20;99.90;;;;;;5023037;28;20456;-43
2022/02/21 10:36:38;;;;;;;5.30;1.90;;;6.20;99.90;;;;;;5025880;28;20467;-43
2022/02/21 10:39:10;;;;;;;9.50;2.30;;;6.20;99.90;;;;;;5027212;28;20897;-45
2022/02/21 10:41:48;;;;;;;9.53;1.60;;;6.10;99.90;;;;;;5026694;28;20417;-44
2022/02/21 10:44:18;;;;;;;3.80;1.70;;;6.10;99.90;;;;;;5026974;28;20421;-44
2022/02/21 10:47:00;;;;;;;3.87;2.40;;;5.90;99.90;;;;;;5021030;28;20995;-43
2022/02/21 10:49:27;;;;;;;4.57;2.13;;;5.70;99.90;;;;;;5026656;28;20958;-44
2022/02/21 10:51:57;;;;;;;5.30;2.20;;;5.80;99.90;;;;;;5025293;28;21083;-44
2022/02/21 10:54:34;;;;;;;9.60;2.10;;;5.80;99.90;;;;;;5026949;28;20551;-43
2022/02/21 10:57:00;;;;;;;6.13;1.43;;;5.70;99.90;;;;;;5027049;28;20455;-44
2022/02/21 10:59:31;;;;;;;9.20;2.53;;;5.50;99.90;;;;;;5026694;28;20516;-42
2022/02/21 11:01:57;;;;;;;6.10;1.60;;;5.20;99.90;;;;;;5019514;28;20438;-43
2022/02/21 11:04:24;;;;;;;5.00;1.93;;;5.20;99.90;;;;;;5024097;28;20528;-44
2022/02/21 11:06:51;;;;;;;4.73;1.63;;;5.10;99.90;;;;;;5026887;28;20432;-48
2022/02/21 11:09:19;;;;;;;6.87;2.10;;;5.30;99.90;;;;;;5028857;28;20727;-41
2022/02/21 11:11:48;;;;;;;4.10;1.80;;;5.20;99.90;;;;;;5030367;28;20807;-42
2022/02/21 11:14:26;;;;;;;6.60;2.90;;;5.30;99.90;;;;;;5030585;28;20417;-41
2022/02/21 11:16:53;;;;;;;8.83;1.63;;;5.30;99.90;;;;;;5024486;28;20495;-40
2022/02/21 11:19:20;;;;;;;4.63;1.77;;;5.20;99.90;;;;;;5027358;28;20938;-40
2022/02/21 11:21:47;;;;;;;12.80;2.10;;;5.20;99.90;;;;;;5036448;28;20416;-42
2022/02/21 11:24:15;;;;;;;6.43;1.83;;;5.10;99.90;;;;;;5050025;28;20424;-41
2022/02/21 11:26:53;;;;;;;7.53;2.30;;;5.30;99.90;;;;;;5038782;28;20841;-40
2022/02/21 11:29:22;;;;;;;7.17;1.80;;;5.10;99.90;;;;;;5050301;28;20415;-41
2022/02/21 11:31:48;;;;;;;10.07;2.27;;;5.20;99.90;;;;;;5040386;28;20438;-41
2022/02/21 11:34:13;;;;;;;7.03;2.17;;;5.00;99.90;;;;;;5019438;28;20483;-41
2022/02/21 11:36:47;;;;;;;7.80;1.63;;;5.30;99.90;;;;;;5030186;28;20425;-41
2022/02/21 11:39:22;;;;;;;5.70;2.57;;;5.20;99.90;;;;;;5029983;28;20190;-41
2022/02/21 11:42:07;;;;;;;6.60;2.83;;;5.10;99.90;;;;;;5029368;28;20425;-41
2022/02/21 11:44:50;;;;;;;7.27;2.73;;;5.30;99.90;;;;;;5030229;28;20807;-44
2022/02/21 11:47:40;;;;;;;6.90;2.20;;;5.40;99.90;;;;;;5024570;28;20430;-42
2022/02/21 11:50:19;;;;;;;7.90;2.50;;;5.20;99.90;;;;;;5024774;28;20422;-41
2022/02/21 11:52:49;;;;;;;6.50;2.20;;;5.50;99.90;;;;;;5030074;28;20920;-41
2022/02/21 11:55:35;;;;;;;5.70;1.93;;;5.20;99.90;;;;;;5029940;28;20452;-41
2022/02/21 11:58:23;;;;;;;3.83;1.50;;;5.40;99.90;;;;;;5029621;28;20473;-40
2022/02/21 12:00:54;;;;;;;6.67;2.00;;;5.30;99.90;;;;;;5029062;28;20830;-40
2022/02/21 12:03:21;;;;;;;4.30;2.27;;;5.40;99.90;;;;;;5017006;28;20528;-41
2022/02/21 12:06:10;;;;;;;4.40;1.60;;;5.50;99.90;;;;;;5029706;28;20410;-41
2022/02/21 12:08:39;;;;;;;9.10;3.20;;;5.40;99.90;;;;;;5026813;28;20455;-43
2022/02/21 12:11:07;;;;;;;6.00;1.87;;;5.40;99.90;;;;;;5029080;28;20532;-41
2022/02/21 12:13:44;;;;;;;7.57;2.27;;;5.20;99.90;;;;;;5029638;28;20869;-41
2022/02/21 12:16:12;;;;;;;4.90;1.80;;;5.40;99.90;;;;;;5029593;28;20448;-41
2022/02/21 12:18:46;;;;;;;7.50;1.73;;;5.40;99.90;;;;;;5021882;28;20437;-44
2022/02/21 12:21:24;;;;;;;5.37;1.80;;;5.40;99.90;;;;;;5032808;28;20538;-42
2022/02/21 12:23:53;;;;;;;4.83;2.10;;;5.50;99.90;;;;;;5028571;28;20421;-43
2022/02/21 12:26:27;;;;;;;3.33;1.50;;;5.60;99.90;;;;;;5029397;28;20421;-41
2022/02/21 12:29:17;;;;;;;9.17;1.83;;;5.50;99.90;;;;;;5029604;28;20501;-41
2022/02/21 12:31:46;;;;;;;5.13;1.77;;;5.40;99.90;;;;;;5029097;28;20425;-43
2022/02/21 12:34:14;;;;;;;3.20;1.80;;;5.30;99.90;;;;;;5021049;28;20399;-42
2022/02/21 12:36:45;;;;;;;3.60;0.97;;;5.30;99.90;;;;;;5029473;28;20897;-41
2022/02/21 12:39:13;;;;;;;3.77;1.47;;;5.40;99.90;;;;;;5029254;28;20409;-42
2022/02/21 12:41:41;;;;;;;6.20;2.23;;;5.60;99.90;;;;;;5026724;28;20556;-41
2022/02/21 12:44:09;;;;;;;9.03;2.30;;;5.50;99.90;;;;;;5029307;28;20833;-41
2022/02/21 12:46:43;;;;;;;4.60;1.40;;;5.50;99.90;;;;;;5028926;28;20453;-41
2022/02/21 12:49:26;;;;;;;6.10;1.70;;;5.70;99.90;;;;;;5017661;28;20464;-41
2022/02/21 12:52:07;;;;;;;4.00;1.90;;;5.60;99.90;;;;;;5021694;28;20452;-42
2022/02/21 12:54:35;;;;;;;6.90;2.00;;;5.70;99.90;;;;;;5027772;28;20432;-41
2022/02/21 12:57:04;;;;;;;6.63;2.40;;;5.60;99.90;;;;;;5028445;28;20441;-41